Time;durP1;ratioP1;P1;durP2;ratioP2;P2;SDS_P1;SDS_P2;PMS_P1;PMS_P2;Temp;Humidity;BMP_temperature;BMP_pressure;BME280_temperature;BME280_humidity;BME280_pressure;Samples;Min_cycle;Max_cycle;Signal;HPM_P1;HPM_P2
2023/07/08 00:00:29;;;;;;;5.70;3.10;;;;;;;;;;5052805;28;20028;-76
2023/07/08 00:02:54;;;;;;;10.63;4.38;;;;;;;;;;5055985;28;20270;-76
2023/07/08 00:05:21;;;;;;;9.17;4.90;;;;;;;;;;5057191;28;20475;-76
2023/07/08 00:07:47;;;;;;;5.85;4.10;;;;;;;;;;5056988;28;20389;-76
2023/07/08 00:10:23;;;;;;;5.22;3.50;;;;;;;;;;5057439;28;20079;-76
2023/07/08 00:12:51;;;;;;;8.43;3.70;;;;;;;;;;5057171;28;20075;-76
2023/07/08 00:15:17;;;;;;;5.45;3.42;;;;;;;;;;5056405;28;20035;-76
2023/07/08 00:17:43;;;;;;;8.27;3.40;;;;;;;;;;5057041;28;20052;-76
2023/07/08 00:20:19;;;;;;;5.32;3.40;;;;;;;;;;5056854;28;20110;-76
2023/07/08 00:22:46;;;;;;;4.78;3.40;;;;;;;;;;5055373;28;20574;-76
2023/07/08 00:25:21;;;;;;;5.97;3.30;;;;;;;;;;5056786;28;20032;-76
2023/07/08 00:27:47;;;;;;;4.22;3.30;;;;;;;;;;5056918;28;20035;-76
2023/07/08 00:30:23;;;;;;;6.97;3.50;;;;;;;;;;5056645;28;20029;-76
2023/07/08 00:32:53;;;;;;;5.53;3.70;;;;;;;;;;5055575;28;20082;-76
2023/07/08 00:35:20;;;;;;;9.32;3.42;;;;;;;;;;5056812;28;20021;-76
2023/07/08 00:37:46;;;;;;;5.72;3.58;;;;;;;;;;5055377;28;20025;-76
2023/07/08 00:40:19;;;;;;;4.97;3.25;;;;;;;;;;5056341;28;20029;-76
2023/07/08 00:42:45;;;;;;;5.45;3.28;;;;;;;;;;5055329;28;20205;-76
2023/07/08 00:46:03;;;;;;;4.75;3.47;;;;;;;;;;5057127;28;20033;-76
2023/07/08 00:48:32;;;;;;;7.65;3.50;;;;;;;;;;5012111;28;20068;-76
2023/07/08 00:50:58;;;;;;;4.50;3.15;;;;;;;;;;5056557;28;20025;-76
2023/07/08 00:53:31;;;;;;;5.05;3.40;;;;;;;;;;5057037;28;20032;-76
2023/07/08 00:56:03;;;;;;;8.10;3.50;;;;;;;;;;5056450;28;20501;-76
2023/07/08 00:58:37;;;;;;;6.53;3.15;;;;;;;;;;5056333;28;20045;-76
2023/07/08 01:01:05;;;;;;;4.72;3.60;;;;;;;;;;5054939;28;20076;-76
2023/07/08 01:03:35;;;;;;;5.13;3.50;;;;;;;;;;5056264;28;20372;-76
2023/07/08 01:06:00;;;;;;;8.82;3.42;;;;;;;;;;5056457;28;20025;-76
2023/07/08 01:08:28;;;;;;;4.75;3.40;;;;;;;;;;5055008;28;20024;-76
2023/07/08 01:11:01;;;;;;;9.95;3.75;;;;;;;;;;5056073;28;20027;-76
2023/07/08 01:13:34;;;;;;;8.63;3.80;;;;;;;;;;5055316;28;20021;-76
2023/07/08 01:15:59;;;;;;;4.75;3.22;;;;;;;;;;5054587;28;20036;-77
2023/07/08 01:18:25;;;;;;;4.30;3.25;;;;;;;;;;5055899;28;20033;-76
2023/07/08 01:20:55;;;;;;;4.95;3.30;;;;;;;;;;5055941;28;20215;-77
2023/07/08 01:23:20;;;;;;;4.82;3.30;;;;;;;;;;5055785;28;20413;-76
2023/07/08 01:25:47;;;;;;;5.82;3.65;;;;;;;;;;5055837;28;20029;-76
2023/07/08 01:28:13;;;;;;;5.30;3.58;;;;;;;;;;5056234;28;20433;-76
2023/07/08 01:30:41;;;;;;;7.38;3.30;;;;;;;;;;5055511;28;20438;-76
2023/07/08 01:33:15;;;;;;;4.60;3.40;;;;;;;;;;5055603;28;20033;-76
2023/07/08 01:35:41;;;;;;;5.32;3.50;;;;;;;;;;5055237;28;20476;-76
2023/07/08 01:38:10;;;;;;;6.60;3.28;;;;;;;;;;5055813;28;20029;-77
2023/07/08 01:40:37;;;;;;;5.03;3.40;;;;;;;;;;5055443;28;20126;-77
2023/07/08 01:43:04;;;;;;;5.60;3.72;;;;;;;;;;5055448;28;20033;-77
2023/07/08 01:45:35;;;;;;;6.93;3.35;;;;;;;;;;5055145;28;20025;-77
2023/07/08 01:48:04;;;;;;;5.32;3.13;;;;;;;;;;5055607;28;20021;-76
2023/07/08 01:50:31;;;;;;;6.30;3.20;;;;;;;;;;5055440;28;20021;-76
2023/07/08 01:52:58;;;;;;;8.20;3.50;;;;;;;;;;5055675;28;20036;-77
2023/07/08 01:55:24;;;;;;;10.50;3.42;;;;;;;;;;5055063;28;20033;-77
2023/07/08 01:57:53;;;;;;;4.88;3.38;;;;;;;;;;5055205;28;20028;-76
2023/07/08 02:00:20;;;;;;;4.65;3.10;;;;;;;;;;5055243;28;20017;-77
2023/07/08 02:02:45;;;;;;;7.03;3.15;;;;;;;;;;5055059;28;20434;-76
2023/07/08 02:05:10;;;;;;;4.35;3.20;;;;;;;;;;5054861;28;20044;-76
2023/07/08 02:07:35;;;;;;;5.00;3.27;;;;;;;;;;5054864;28;20031;-77
2023/07/08 02:10:01;;;;;;;4.53;3.27;;;;;;;;;;5055089;28;20258;-76
2023/07/08 02:12:26;;;;;;;5.95;3.20;;;;;;;;;;5054997;28;20269;-76
2023/07/08 02:14:51;;;;;;;5.80;3.50;;;;;;;;;;5055323;28;20033;-77
2023/07/08 02:17:16;;;;;;;7.97;3.50;;;;;;;;;;5054497;28;20299;-76
2023/07/08 02:19:43;;;;;;;7.77;3.53;;;;;;;;;;5054485;28;20265;-77
2023/07/08 02:22:08;;;;;;;4.85;3.50;;;;;;;;;;5053202;28;20285;-76
2023/07/08 02:24:33;;;;;;;6.53;3.25;;;;;;;;;;5053002;28;20020;-76
2023/07/08 02:26:59;;;;;;;7.20;3.17;;;;;;;;;;5053054;28;20025;-75
2023/07/08 02:29:24;;;;;;;5.45;3.70;;;;;;;;;;5054801;28;20357;-76
2023/07/08 02:31:50;;;;;;;5.50;3.50;;;;;;;;;;5054242;28;20025;-76
2023/07/08 02:34:15;;;;;;;7.53;3.80;;;;;;;;;;5054434;28;20028;-76
2023/07/08 02:36:40;;;;;;;5.40;3.70;;;;;;;;;;5054943;28;20258;-76
2023/07/08 02:39:06;;;;;;;4.82;3.00;;;;;;;;;;5054480;28;20254;-76
2023/07/08 02:41:31;;;;;;;6.60;3.67;;;;;;;;;;5054217;28;20083;-77
2023/07/08 02:43:56;;;;;;;5.03;3.13;;;;;;;;;;5053032;28;20043;-77
2023/07/08 02:46:21;;;;;;;5.15;3.40;;;;;;;;;;5054092;28;20254;-76
2023/07/08 02:48:46;;;;;;;4.50;3.23;;;;;;;;;;5054062;28;20029;-76
2023/07/08 02:51:12;;;;;;;5.67;3.03;;;;;;;;;;5054164;28;20261;-76
2023/07/08 02:53:37;;;;;;;4.50;3.30;;;;;;;;;;5054093;28;20257;-77
2023/07/08 02:56:02;;;;;;;7.50;3.27;;;;;;;;;;5053907;28;20254;-77
2023/07/08 02:58:28;;;;;;;5.05;3.40;;;;;;;;;;5054670;28;20262;-77
2023/07/08 03:00:54;;;;;;;5.15;3.28;;;;;;;;;;5053830;28;20021;-77
2023/07/08 03:03:20;;;;;;;6.63;3.40;;;;;;;;;;5053780;28;20395;-77
2023/07/08 03:05:54;;;;;;;4.45;3.33;;;;;;;;;;5052474;28;20028;-76
2023/07/08 03:08:19;;;;;;;5.22;3.50;;;;;;;;;;5053847;28;20451;-76
2023/07/08 03:10:48;;;;;;;4.57;3.33;;;;;;;;;;5053784;28;20024;-76
2023/07/08 03:13:14;;;;;;;7.30;3.75;;;;;;;;;;5052736;28;20258;-75
2023/07/08 03:15:39;;;;;;;4.43;3.47;;;;;;;;;;5052299;28;20521;-76
2023/07/08 03:18:05;;;;;;;8.33;3.60;;;;;;;;;;5053667;28;20036;-77
2023/07/08 03:20:32;;;;;;;9.05;3.42;;;;;;;;;;5053664;28;20270;-76
2023/07/08 03:22:57;;;;;;;8.48;3.60;;;;;;;;;;5052402;28;20025;-76
2023/07/08 03:25:22;;;;;;;5.73;3.50;;;;;;;;;;5052120;28;20415;-76
2023/07/08 03:27:47;;;;;;;5.80;3.50;;;;;;;;;;5054003;28;20266;-76
2023/07/08 03:30:13;;;;;;;4.47;3.30;;;;;;;;;;5051532;28;20310;-76
2023/07/08 03:32:38;;;;;;;5.00;3.22;;;;;;;;;;5051559;28;20344;-77
2023/07/08 03:35:04;;;;;;;6.23;3.87;;;;;;;;;;5053119;28;20032;-76
2023/07/08 03:37:29;;;;;;;7.50;3.83;;;;;;;;;;5051353;28;20258;-77
2023/07/08 03:39:54;;;;;;;5.45;3.60;;;;;;;;;;5052750;28;20116;-77
2023/07/08 03:42:19;;;;;;;7.93;3.70;;;;;;;;;;5053774;28;20048;-77
2023/07/08 03:44:45;;;;;;;5.47;3.60;;;;;;;;;;5053738;28;20258;-76
2023/07/08 03:47:10;;;;;;;5.20;3.10;;;;;;;;;;5053868;28;20265;-77
2023/07/08 03:49:35;;;;;;;4.60;3.27;;;;;;;;;;5053903;28;20254;-76
2023/07/08 03:52:00;;;;;;;6.97;3.60;;;;;;;;;;5053638;28;20254;-77
2023/07/08 03:54:26;;;;;;;4.53;3.30;;;;;;;;;;5053839;28;20040;-76
2023/07/08 03:56:52;;;;;;;6.00;3.65;;;;;;;;;;5053869;28;20341;-76
2023/07/08 03:59:18;;;;;;;5.28;3.30;;;;;;;;;;5053981;28;20025;-76
2023/07/08 04:01:43;;;;;;;5.95;3.70;;;;;;;;;;5053439;28;20483;-76
2023/07/08 04:04:12;;;;;;;4.97;3.40;;;;;;;;;;5053563;28;20032;-76
2023/07/08 04:06:37;;;;;;;6.78;3.50;;;;;;;;;;5053246;28;20257;-76
2023/07/08 04:09:03;;;;;;;4.40;3.30;;;;;;;;;;5051839;28;20112;-77
2023/07/08 04:11:28;;;;;;;4.30;3.42;;;;;;;;;;5053689;28;20044;-77
2023/07/08 04:13:53;;;;;;;6.63;3.58;;;;;;;;;;5053621;28;20498;-76
2023/07/08 04:16:23;;;;;;;5.13;3.40;;;;;;;;;;5053406;28;20036;-77
2023/07/08 04:18:50;;;;;;;5.22;3.33;;;;;;;;;;5053414;28;20258;-77
2023/07/08 04:21:16;;;;;;;4.80;3.03;;;;;;;;;;5053609;28;20099;-77
2023/07/08 04:23:42;;;;;;;4.40;2.95;;;;;;;;;;5053078;28;20496;-77
2023/07/08 04:26:08;;;;;;;4.83;3.23;;;;;;;;;;5053055;28;20035;-77
2023/07/08 04:28:33;;;;;;;7.55;3.42;;;;;;;;;;5051857;28;20357;-77
2023/07/08 04:30:58;;;;;;;5.40;3.03;;;;;;;;;;5053420;28;20437;-77
2023/07/08 04:33:24;;;;;;;7.47;3.20;;;;;;;;;;5053091;28;20656;-77
2023/07/08 04:35:49;;;;;;;7.20;3.50;;;;;;;;;;5052996;28;20663;-77
2023/07/08 04:38:21;;;;;;;4.70;3.22;;;;;;;;;;5051871;28;20633;-77
2023/07/08 04:40:47;;;;;;;5.72;3.28;;;;;;;;;;5052918;28;20161;-77
2023/07/08 04:43:12;;;;;;;8.25;3.40;;;;;;;;;;5053171;28;20036;-77
2023/07/08 04:45:42;;;;;;;5.03;3.25;;;;;;;;;;5051811;28;20061;-76
2023/07/08 04:48:12;;;;;;;10.63;3.20;;;;;;;;;;5054477;28;20021;-75
2023/07/08 04:50:43;;;;;;;7.40;3.30;;;;;;;;;;5056895;28;20158;-75
2023/07/08 04:53:09;;;;;;;6.03;3.22;;;;;;;;;;5056761;28;20510;-75
2023/07/08 04:55:47;;;;;;;5.88;3.42;;;;;;;;;;5056645;28;20040;-75
2023/07/08 04:58:13;;;;;;;5.07;3.22;;;;;;;;;;5056610;28;20036;-76
2023/07/08 05:00:38;;;;;;;5.70;3.20;;;;;;;;;;5054880;28;20060;-76
2023/07/08 05:03:03;;;;;;;7.13;3.28;;;;;;;;;;5056451;28;20250;-76
2023/07/08 05:05:29;;;;;;;6.23;3.53;;;;;;;;;;5055066;28;20112;-76
2023/07/08 05:07:54;;;;;;;4.65;2.97;;;;;;;;;;5056567;28;20274;-76
2023/07/08 05:10:20;;;;;;;5.22;2.95;;;;;;;;;;5056277;28;20027;-76
2023/07/08 05:12:45;;;;;;;4.13;2.88;;;;;;;;;;5056157;28;20056;-76
2023/07/08 05:15:12;;;;;;;5.00;2.70;;;;;;;;;;5056107;28;20033;-76
2023/07/08 05:17:38;;;;;;;4.22;2.72;;;;;;;;;;5054933;28;20518;-76
2023/07/08 05:20:07;;;;;;;3.67;2.63;;;;;;;;;;5056022;28;20104;-75
2023/07/08 05:22:33;;;;;;;4.47;2.70;;;;;;;;;;5054671;28;20513;-77
2023/07/08 05:24:58;;;;;;;4.88;2.80;;;;;;;;;;5055191;28;20078;-77
2023/07/08 05:27:24;;;;;;;4.83;2.80;;;;;;;;;;5056289;28;20478;-76
2023/07/08 05:29:50;;;;;;;3.33;2.38;;;;;;;;;;5054408;28;20254;-76
2023/07/08 05:32:16;;;;;;;4.90;2.80;;;;;;;;;;5055954;28;20036;-75
2023/07/08 05:34:41;;;;;;;4.28;2.60;;;;;;;;;;5054702;28;20021;-76
2023/07/08 05:37:06;;;;;;;3.42;2.28;;;;;;;;;;5055635;28;20040;-77
2023/07/08 05:39:32;;;;;;;6.97;2.60;;;;;;;;;;5054024;28;20392;-77
2023/07/08 05:41:57;;;;;;;3.42;2.33;;;;;;;;;;5055635;28;20048;-76
2023/07/08 05:44:23;;;;;;;4.35;2.60;;;;;;;;;;5054286;28;20086;-77
2023/07/08 05:46:49;;;;;;;7.32;2.50;;;;;;;;;;5053929;28;20046;-77
2023/07/08 05:49:14;;;;;;;4.22;2.53;;;;;;;;;;5053952;28;20563;-76
2023/07/08 05:51:40;;;;;;;4.70;2.42;;;;;;;;;;5055531;28;20064;-76
2023/07/08 05:54:05;;;;;;;5.45;2.35;;;;;;;;;;5053819;28;20040;-77
2023/07/08 05:56:30;;;;;;;5.22;2.72;;;;;;;;;;5055193;28;20479;-76
2023/07/08 05:58:56;;;;;;;4.87;2.30;;;;;;;;;;5055230;28;20063;-76
2023/07/08 06:01:21;;;;;;;6.53;2.90;;;;;;;;;;5054982;28;20278;-75
2023/07/08 06:03:47;;;;;;;5.60;2.50;;;;;;;;;;5055369;28;20029;-76
2023/07/08 06:06:12;;;;;;;3.53;2.53;;;;;;;;;;5055012;28;20112;-77
2023/07/08 06:08:37;;;;;;;4.93;2.47;;;;;;;;;;5054000;28;20542;-77
2023/07/08 06:11:02;;;;;;;4.83;3.00;;;;;;;;;;5054809;28;20610;-77
2023/07/08 06:13:27;;;;;;;4.20;2.53;;;;;;;;;;5054502;28;20814;-77
2023/07/08 06:15:53;;;;;;;4.67;2.70;;;;;;;;;;5054332;28;20059;-77
2023/07/08 06:18:18;;;;;;;4.70;2.63;;;;;;;;;;5054997;28;20743;-77
2023/07/08 06:20:54;;;;;;;3.40;2.30;;;;;;;;;;5054468;28;20763;-77
2023/07/08 06:23:19;;;;;;;4.03;2.40;;;;;;;;;;5053218;28;20764;-76
2023/07/08 06:25:44;;;;;;;5.20;2.60;;;;;;;;;;5054218;28;20049;-77
2023/07/08 06:28:10;;;;;;;12.87;2.63;;;;;;;;;;5054386;28;20087;-76
2023/07/08 06:30:36;;;;;;;5.97;2.53;;;;;;;;;;5054079;28;20262;-76
2023/07/08 06:33:01;;;;;;;5.07;2.40;;;;;;;;;;5052794;28;20325;-76
2023/07/08 06:35:26;;;;;;;3.70;2.33;;;;;;;;;;5054005;28;20040;-77
2023/07/08 06:37:51;;;;;;;3.80;2.40;;;;;;;;;;5052905;28;20259;-77
2023/07/08 06:40:19;;;;;;;5.13;2.63;;;;;;;;;;5053582;28;20290;-77
2023/07/08 06:42:44;;;;;;;6.40;2.30;;;;;;;;;;5053788;28;20648;-77
2023/07/08 06:45:10;;;;;;;2.70;2.20;;;;;;;;;;5053863;28;20025;-76
2023/07/08 06:47:35;;;;;;;4.47;2.40;;;;;;;;;;5053772;28;20040;-77
2023/07/08 06:50:00;;;;;;;3.93;2.70;;;;;;;;;;5054346;28;20039;-77
2023/07/08 06:52:26;;;;;;;4.83;2.80;;;;;;;;;;5054236;28;20293;-76
2023/07/08 06:54:51;;;;;;;4.40;2.75;;;;;;;;;;5053570;28;20262;-76
2023/07/08 06:57:16;;;;;;;3.43;2.50;;;;;;;;;;5053753;28;20021;-76
2023/07/08 06:59:41;;;;;;;5.18;2.40;;;;;;;;;;5053582;28;20285;-76
2023/07/08 07:02:08;;;;;;;3.33;2.60;;;;;;;;;;5053481;28;20094;-76
2023/07/08 07:04:33;;;;;;;4.07;2.35;;;;;;;;;;5053596;28;20262;-76
2023/07/08 07:06:58;;;;;;;9.10;2.92;;;;;;;;;;5053668;28;20017;-76
2023/07/08 07:09:24;;;;;;;5.10;2.47;;;;;;;;;;5053423;28;20061;-76
2023/07/08 07:11:49;;;;;;;5.20;2.50;;;;;;;;;;5051698;28;20257;-76
2023/07/08 07:14:14;;;;;;;5.23;2.90;;;;;;;;;;5053430;28;20103;-76
2023/07/08 07:16:39;;;;;;;3.67;2.33;;;;;;;;;;5053154;28;20305;-76
2023/07/08 07:19:04;;;;;;;5.67;2.70;;;;;;;;;;5052080;28;20064;-76
2023/07/08 07:21:30;;;;;;;9.90;3.10;;;;;;;;;;5051949;28;20064;-76
2023/07/08 07:23:55;;;;;;;4.57;2.60;;;;;;;;;;5053344;28;20036;-76
2023/07/08 07:26:20;;;;;;;4.30;2.80;;;;;;;;;;5053068;28;20328;-77
2023/07/08 07:28:45;;;;;;;4.43;2.70;;;;;;;;;;5053118;28;20253;-77
2023/07/08 07:31:11;;;;;;;3.83;2.70;;;;;;;;;;5053484;28;20094;-77
2023/07/08 07:33:36;;;;;;;3.65;2.70;;;;;;;;;;5051778;28;20029;-76
2023/07/08 07:36:02;;;;;;;3.90;2.50;;;;;;;;;;5053107;28;20033;-77
2023/07/08 07:38:28;;;;;;;4.20;2.78;;;;;;;;;;5051674;28;20487;-77
2023/07/08 07:40:54;;;;;;;4.78;2.90;;;;;;;;;;5052912;28;20021;-76
2023/07/08 07:43:20;;;;;;;4.30;2.63;;;;;;;;;;5051740;28;20028;-76
2023/07/08 07:45:49;;;;;;;5.70;2.72;;;;;;;;;;5053213;28;20032;-76
2023/07/08 07:48:14;;;;;;;6.20;2.80;;;;;;;;;;5053218;28;20028;-76
2023/07/08 07:50:40;;;;;;;3.47;2.50;;;;;;;;;;5053342;28;20472;-76
2023/07/08 07:53:06;;;;;;;6.63;2.70;;;;;;;;;;5051880;28;20484;-75
2023/07/08 07:55:31;;;;;;;4.72;2.72;;;;;;;;;;5051420;28;20020;-76
2023/07/08 07:57:56;;;;;;;4.57;2.70;;;;;;;;;;5051871;28;20021;-78
2023/07/08 08:00:21;;;;;;;4.63;2.83;;;;;;;;;;5052549;28;20017;-76
2023/07/08 08:02:46;;;;;;;11.53;3.10;;;;;;;;;;5053180;28;20032;-77
2023/07/08 08:05:12;;;;;;;7.18;3.08;;;;;;;;;;5053054;28;20021;-76
2023/07/08 08:07:37;;;;;;;6.10;2.80;;;;;;;;;;5053046;28;20070;-77
2023/07/08 08:10:03;;;;;;;3.97;2.80;;;;;;;;;;5052841;28;20258;-77
2023/07/08 08:12:29;;;;;;;5.97;2.85;;;;;;;;;;5053423;28;20266;-77
2023/07/08 08:14:54;;;;;;;5.05;2.83;;;;;;;;;;5053048;28;20021;-77
2023/07/08 08:17:20;;;;;;;6.40;3.03;;;;;;;;;;5053220;28;20537;-77
2023/07/08 08:19:45;;;;;;;5.38;2.80;;;;;;;;;;5052900;28;20032;-77
2023/07/08 08:22:10;;;;;;;4.77;2.70;;;;;;;;;;5053039;28;20463;-77
2023/07/08 08:24:36;;;;;;;5.60;3.10;;;;;;;;;;5056660;28;20597;-77
2023/07/08 08:27:01;;;;;;;6.32;2.97;;;;;;;;;;5057188;28;20108;-77
2023/07/08 08:29:27;;;;;;;3.72;2.78;;;;;;;;;;5056826;28;20029;-77
2023/07/08 08:31:54;;;;;;;4.37;2.77;;;;;;;;;;5055086;28;20391;-77
2023/07/08 08:34:19;;;;;;;6.25;2.90;;;;;;;;;;5056792;28;20475;-77
2023/07/08 08:36:44;;;;;;;6.35;3.17;;;;;;;;;;5055410;28;20048;-77
2023/07/08 08:39:09;;;;;;;4.55;3.13;;;;;;;;;;5056567;28;20020;-77
2023/07/08 08:41:38;;;;;;;6.80;2.87;;;;;;;;;;5055107;28;20487;-77
2023/07/08 08:44:05;;;;;;;3.55;2.80;;;;;;;;;;5056045;28;20025;-77
2023/07/08 08:46:49;;;;;;;6.78;3.25;;;;;;;;;;5056069;28;20025;-77
2023/07/08 08:49:20;;;;;;;6.05;3.20;;;;;;;;;;5056504;28;20029;-76
2023/07/08 08:51:47;;;;;;;3.70;2.63;;;;;;;;;;5055993;28;20064;-76
2023/07/08 08:54:12;;;;;;;6.65;3.47;;;;;;;;;;5056007;28;20050;-78
2023/07/08 08:56:49;;;;;;;8.60;3.10;;;;;;;;;;5055941;28;20559;-77
2023/07/08 08:59:41;;;;;;;4.55;2.85;;;;;;;;;;5056097;28;20254;-77
2023/07/08 09:02:44;;;;;;;6.82;3.25;;;;;;;;;;5056008;28;20051;-77
2023/07/08 09:05:11;;;;;;;4.15;3.00;;;;;;;;;;5055565;28;20091;-77
2023/07/08 09:07:59;;;;;;;6.30;3.08;;;;;;;;;;5055733;28;20035;-77
2023/07/08 09:10:55;;;;;;;3.65;2.83;;;;;;;;;;5055724;28;20075;-77
2023/07/08 09:13:36;;;;;;;3.92;2.78;;;;;;;;;;5055845;28;20131;-76
2023/07/08 09:16:07;;;;;;;10.32;2.85;;;;;;;;;;5055381;28;20017;-77
2023/07/08 09:18:40;;;;;;;3.33;2.58;;;;;;;;;;5055341;28;20373;-77
2023/07/08 09:21:18;;;;;;;5.20;2.88;;;;;;;;;;5055595;28;20526;-77
2023/07/08 09:23:45;;;;;;;4.25;2.63;;;;;;;;;;5054159;28;20037;-77
2023/07/08 09:26:15;;;;;;;4.88;2.88;;;;;;;;;;5055215;28;20036;-77
2023/07/08 09:28:43;;;;;;;4.07;2.97;;;;;;;;;;5055313;28;20025;-77
2023/07/08 09:31:28;;;;;;;3.13;2.40;;;;;;;;;;5055442;28;20365;-77
2023/07/08 09:34:05;;;;;;;5.38;2.60;;;;;;;;;;5055046;28;20388;-77
2023/07/08 09:36:30;;;;;;;4.13;2.40;;;;;;;;;;5054594;28;20025;-77
2023/07/08 09:38:56;;;;;;;4.00;2.50;;;;;;;;;;5055040;28;20025;-78
2023/07/08 09:41:35;;;;;;;5.45;2.63;;;;;;;;;;5054848;28;20281;-76
2023/07/08 09:44:29;;;;;;;4.47;2.65;;;;;;;;;;5055066;28;20029;-77
2023/07/08 09:46:57;;;;;;;4.78;2.55;;;;;;;;;;5054928;28;20024;-77
2023/07/08 09:49:27;;;;;;;3.15;2.28;;;;;;;;;;5054986;28;20021;-77
2023/07/08 09:51:52;;;;;;;4.07;2.47;;;;;;;;;;5055327;28;20071;-77
2023/07/08 09:54:19;;;;;;;4.78;2.35;;;;;;;;;;5053740;28;20025;-77
2023/07/08 09:57:01;;;;;;;14.80;2.50;;;;;;;;;;5053623;28;20029;-77
2023/07/08 09:59:39;;;;;;;3.88;2.60;;;;;;;;;;5055023;28;20029;-77
2023/07/08 10:02:26;;;;;;;3.42;2.40;;;;;;;;;;5054595;28;20083;-77
2023/07/08 10:04:53;;;;;;;5.32;2.53;;;;;;;;;;5054553;28;20048;-77
2023/07/08 10:07:19;;;;;;;6.10;2.67;;;;;;;;;;5054696;28;20052;-77
2023/07/08 10:09:48;;;;;;;3.42;2.50;;;;;;;;;;5054348;28;20430;-77
2023/07/08 10:12:14;;;;;;;3.47;2.55;;;;;;;;;;5054813;28;20531;-77
2023/07/08 10:14:45;;;;;;;6.10;2.60;;;;;;;;;;5053171;28;20138;-78
2023/07/08 10:17:15;;;;;;;3.20;2.47;;;;;;;;;;5054617;28;20025;-76
2023/07/08 10:19:40;;;;;;;6.45;2.70;;;;;;;;;;5054539;28;20017;-77
2023/07/08 10:22:30;;;;;;;9.55;2.88;;;;;;;;;;5054462;28;20028;-77
2023/07/08 10:25:34;;;;;;;5.93;2.85;;;;;;;;;;5054104;28;20029;-77
2023/07/08 10:28:20;;;;;;;3.38;2.35;;;;;;;;;;5054166;28;20437;-76
2023/07/08 10:31:14;;;;;;;3.15;2.53;;;;;;;;;;5053302;28;20028;-76
2023/07/08 10:34:01;;;;;;;8.07;2.80;;;;;;;;;;5054234;28;20029;-76
2023/07/08 10:36:49;;;;;;;10.93;2.58;;;;;;;;;;5052794;28;20040;-76
2023/07/08 10:39:28;;;;;;;4.15;2.47;;;;;;;;;;5052682;28;20025;-77
2023/07/08 10:42:01;;;;;;;5.55;2.45;;;;;;;;;;5053970;28;20037;-76
2023/07/08 10:44:44;;;;;;;3.78;2.42;;;;;;;;;;5054235;28;20430;-76
2023/07/08 10:47:35;;;;;;;3.40;2.50;;;;;;;;;;5053226;28;20395;-77
2023/07/08 10:50:30;;;;;;;4.07;2.58;;;;;;;;;;5053589;28;20040;-77
2023/07/08 10:53:20;;;;;;;6.78;2.70;;;;;;;;;;5053546;28;20075;-77
2023/07/08 10:55:58;;;;;;;4.63;2.30;;;;;;;;;;5053454;28;20525;-77
2023/07/08 10:58:54;;;;;;;5.80;2.53;;;;;;;;;;5053616;28;20036;-77
2023/07/08 11:01:44;;;;;;;3.70;2.70;;;;;;;;;;5052065;28;20365;-77
2023/07/08 11:04:24;;;;;;;4.88;2.65;;;;;;;;;;5053563;28;20025;-77
2023/07/08 11:07:03;;;;;;;4.93;2.67;;;;;;;;;;5053287;28;20044;-77
2023/07/08 11:09:44;;;;;;;4.00;2.45;;;;;;;;;;5051974;28;20063;-77
2023/07/08 11:12:24;;;;;;;3.42;2.40;;;;;;;;;;5053402;28;20021;-77
2023/07/08 11:15:00;;;;;;;3.78;2.55;;;;;;;;;;5053259;28;20028;-77
2023/07/08 11:17:32;;;;;;;6.20;2.50;;;;;;;;;;5053027;28;20028;-77
2023/07/08 11:20:20;;;;;;;6.57;2.67;;;;;;;;;;5051779;28;20032;-77
2023/07/08 11:22:54;;;;;;;3.55;2.28;;;;;;;;;;5051755;28;20032;-77
2023/07/08 11:25:21;;;;;;;5.75;2.78;;;;;;;;;;5053048;28;20418;-77
2023/07/08 11:27:51;;;;;;;4.90;2.50;;;;;;;;;;5052913;28;20396;-77
2023/07/08 11:30:21;;;;;;;4.80;2.80;;;;;;;;;;5053120;28;20032;-77
2023/07/08 11:32:51;;;;;;;4.78;2.70;;;;;;;;;;5053028;28;20556;-77
2023/07/08 11:35:21;;;;;;;8.60;2.45;;;;;;;;;;5053212;28;20052;-77
2023/07/08 11:37:47;;;;;;;5.55;2.60;;;;;;;;;;5052895;28;20100;-77
2023/07/08 11:40:22;;;;;;;3.38;2.53;;;;;;;;;;5051452;28;20119;-77
2023/07/08 11:42:52;;;;;;;9.20;2.70;;;;;;;;;;5053012;28;20033;-76
2023/07/08 11:45:17;;;;;;;3.85;2.67;;;;;;;;;;5051481;28;20037;-77
2023/07/08 11:47:48;;;;;;;4.10;2.90;;;;;;;;;;5053192;28;20373;-77
2023/07/08 11:50:22;;;;;;;4.30;2.80;;;;;;;;;;5052986;28;20040;-77
2023/07/08 11:53:03;;;;;;;7.00;2.80;;;;;;;;;;5053283;28;20124;-76
2023/07/08 11:55:55;;;;;;;8.13;2.80;;;;;;;;;;5052574;28;20122;-77
2023/07/08 11:58:25;;;;;;;4.30;2.92;;;;;;;;;;5055024;28;20052;-78
2023/07/08 12:01:24;;;;;;;5.55;2.45;;;;;;;;;;5056232;28;20033;-77
2023/07/08 12:03:54;;;;;;;5.50;2.90;;;;;;;;;;5055660;28;20029;-77
2023/07/08 12:06:29;;;;;;;3.15;2.40;;;;;;;;;;5057165;28;20028;-77
2023/07/08 12:08:56;;;;;;;3.90;2.75;;;;;;;;;;5055436;28;20025;-77
2023/07/08 12:11:30;;;;;;;4.35;2.72;;;;;;;;;;5056621;28;20064;-77
2023/07/08 12:13:59;;;;;;;3.65;2.40;;;;;;;;;;5056849;28;20033;-77
2023/07/08 12:16:25;;;;;;;6.18;2.92;;;;;;;;;;5056605;28;20391;-77
2023/07/08 12:18:53;;;;;;;3.78;2.60;;;;;;;;;;5056933;28;20029;-77
2023/07/08 12:21:18;;;;;;;6.47;2.55;;;;;;;;;;5055519;28;20025;-76
2023/07/08 12:23:45;;;;;;;4.60;2.42;;;;;;;;;;5056989;28;20032;-77
2023/07/08 12:26:11;;;;;;;4.55;2.40;;;;;;;;;;5056375;28;20048;-78
2023/07/08 12:28:38;;;;;;;4.25;2.95;;;;;;;;;;5056458;28;20483;-77
2023/07/08 12:31:14;;;;;;;7.93;2.63;;;;;;;;;;5056683;28;20021;-77
2023/07/08 12:33:39;;;;;;;3.75;2.50;;;;;;;;;;5056935;28;20024;-77
2023/07/08 12:36:05;;;;;;;4.45;2.63;;;;;;;;;;5056203;28;20032;-77
2023/07/08 12:38:41;;;;;;;4.28;2.60;;;;;;;;;;5056256;28;20055;-77
2023/07/08 12:41:13;;;;;;;8.05;2.60;;;;;;;;;;5055948;28;20029;-77
2023/07/08 12:43:39;;;;;;;5.30;2.92;;;;;;;;;;5054707;28;20381;-77
2023/07/08 12:46:04;;;;;;;3.73;2.67;;;;;;;;;;5055969;28;20031;-77
2023/07/08 12:48:37;;;;;;;3.40;2.60;;;;;;;;;;5054869;28;20622;-77
2023/07/08 12:51:03;;;;;;;4.68;3.00;;;;;;;;;;5055368;28;20017;-77
2023/07/08 12:53:28;;;;;;;6.40;2.63;;;;;;;;;;5055999;28;20476;-77
2023/07/08 12:55:56;;;;;;;4.60;2.53;;;;;;;;;;5055699;28;20054;-77
2023/07/08 12:58:27;;;;;;;4.80;2.70;;;;;;;;;;5054733;28;20476;-77
2023/07/08 13:00:53;;;;;;;8.20;2.55;;;;;;;;;;5055888;28;20036;-77
2023/07/08 13:03:25;;;;;;;3.30;2.47;;;;;;;;;;5056041;28;20069;-77
2023/07/08 13:05:53;;;;;;;4.60;2.70;;;;;;;;;;5056356;28;20032;-77
2023/07/08 13:08:22;;;;;;;7.03;2.65;;;;;;;;;;5054983;28;20035;-77
2023/07/08 13:10:50;;;;;;;4.68;2.90;;;;;;;;;;5055693;28;20044;-77
2023/07/08 13:13:20;;;;;;;4.85;2.47;;;;;;;;;;5054520;28;20055;-77
2023/07/08 13:15:46;;;;;;;3.60;2.58;;;;;;;;;;5055512;28;20024;-77
2023/07/08 13:18:17;;;;;;;3.55;2.53;;;;;;;;;;5055568;28;20391;-77
2023/07/08 13:20:47;;;;;;;4.85;2.30;;;;;;;;;;5055359;28;20025;-77
2023/07/08 13:23:13;;;;;;;3.28;2.60;;;;;;;;;;5055528;28;20113;-77
2023/07/08 13:25:38;;;;;;;3.90;2.60;;;;;;;;;;5054082;28;20111;-77
2023/07/08 13:28:22;;;;;;;7.93;2.70;;;;;;;;;;5055362;28;20024;-77
2023/07/08 13:30:53;;;;;;;7.75;2.80;;;;;;;;;;5055549;28;20490;-77
2023/07/08 13:33:18;;;;;;;5.50;2.63;;;;;;;;;;5055269;28;20450;-77
2023/07/08 13:35:45;;;;;;;2.30;2.10;;;;;;;;;;5055366;28;20020;-77
2023/07/08 13:38:19;;;;;;;3.45;2.40;;;;;;;;;;5055296;28;20135;-77
2023/07/08 13:40:48;;;;;;;4.25;2.90;;;;;;;;;;5053519;28;20031;-77
2023/07/08 13:43:13;;;;;;;4.35;3.00;;;;;;;;;;5055084;28;20440;-77
2023/07/08 13:45:47;;;;;;;3.53;2.58;;;;;;;;;;5055087;28;20060;-77
2023/07/08 13:48:21;;;;;;;5.80;2.88;;;;;;;;;;5055109;28;20025;-77
2023/07/08 13:50:54;;;;;;;3.30;2.50;;;;;;;;;;5055348;28;20352;-77
2023/07/08 13:53:26;;;;;;;3.28;2.42;;;;;;;;;;5055154;28;20387;-77
2023/07/08 13:56:00;;;;;;;3.05;2.50;;;;;;;;;;5054731;28;20033;-77
2023/07/08 13:58:28;;;;;;;4.97;2.50;;;;;;;;;;5054812;28;20082;-77
2023/07/08 14:00:53;;;;;;;4.10;2.80;;;;;;;;;;5053397;28;20013;-77
2023/07/08 14:03:20;;;;;;;7.25;2.65;;;;;;;;;;5054873;28;20078;-77
2023/07/08 14:05:45;;;;;;;3.67;2.70;;;;;;;;;;5054500;28;20506;-77
2023/07/08 14:08:15;;;;;;;4.43;2.60;;;;;;;;;;5054907;28;20025;-78
2023/07/08 14:10:40;;;;;;;7.65;2.83;;;;;;;;;;5054371;28;20407;-77
2023/07/08 14:13:06;;;;;;;10.13;2.85;;;;;;;;;;5054875;28;20021;-77
2023/07/08 14:15:32;;;;;;;4.90;2.50;;;;;;;;;;5052993;28;20124;-77
2023/07/08 14:17:58;;;;;;;4.13;2.95;;;;;;;;;;5054407;28;20265;-77
2023/07/08 14:20:27;;;;;;;5.43;2.72;;;;;;;;;;5053559;28;20103;-77
2023/07/08 14:22:52;;;;;;;4.00;2.70;;;;;;;;;;5054339;28;20029;-77
2023/07/08 14:25:20;;;;;;;4.82;2.60;;;;;;;;;;5054553;28;20025;-77
2023/07/08 14:27:45;;;;;;;3.47;2.45;;;;;;;;;;5054236;28;20060;-77
2023/07/08 14:30:11;;;;;;;8.37;2.87;;;;;;;;;;5054347;28;20063;-77
2023/07/08 14:32:36;;;;;;;3.70;2.80;;;;;;;;;;5052781;28;20044;-77
2023/07/08 14:35:21;;;;;;;4.87;2.70;;;;;;;;;;5053879;28;20060;-77
2023/07/08 14:37:47;;;;;;;3.25;2.42;;;;;;;;;;5053853;28;20079;-77
2023/07/08 14:40:29;;;;;;;5.80;3.07;;;;;;;;;;5053628;28;20438;-77
2023/07/08 14:42:59;;;;;;;5.78;2.60;;;;;;;;;;5053917;28;20266;-77
2023/07/08 14:45:25;;;;;;;4.22;2.50;;;;;;;;;;5053766;28;20025;-78
2023/07/08 14:47:50;;;;;;;4.30;2.65;;;;;;;;;;5052531;28;20529;-77
2023/07/08 14:50:15;;;;;;;4.13;2.67;;;;;;;;;;5053752;28;20035;-77
2023/07/08 14:52:41;;;;;;;8.23;2.70;;;;;;;;;;5053945;28;20017;-77
2023/07/08 14:55:08;;;;;;;4.83;2.70;;;;;;;;;;5053606;28;20104;-77